• Join FlightAware (Why Join?)
  • Login
  • US Flag 
01:25PM EST


 

Airport Tracker/Info


-or-


 

Live Flight TrackerFlight Track Log ✈ ASQ4976 ✈ 29-Apr-2013 ✈ KATL - KALB

Flight Track Log - Related Links

Times and Time Zones

All times are in EDT time to prevent confusion due to time zone crossing. See the ASQ4976 flight status page for this flight to view local times or setup timezone preferences in your user account.

Time Position Orientation Groundspeed Altitude Reporting Facility
EDT Latitude Longitude Course Direction KTS MPH feet Rate Location/Type
10:06AM 33.6333 -84.4000 90° East 179 206 1,900  Level Atlanta TRACON
10:07AM 33.6333 -84.3333 90° East 242 278 2,700 1,920 Climbing Atlanta TRACON
10:08AM 33.6333 -84.2333 90° East 280 322 5,400 2,640 Climbing Atlanta TRACON
10:09AM 33.6333 -84.1500 90° East 292 336 8,000 2,280 Climbing Atlanta TRACON
10:09AM 33.6336 -84.1211 89° East 293 337 8,300 1,860 Climbing Atlanta Center
10:10AM 33.6772 -84.0439 56° Northeast 306 352 10,400 1,740 Climbing Atlanta Center
10:11AM 33.7442 -83.9564 47° Northeast 327 376 11,800 1,740 Climbing Atlanta Center
10:12AM 33.8169 -83.8664 46° Northeast 363 418 13,900 2,100 Climbing Atlanta Center
10:13AM 33.8900 -83.7686 48° Northeast 384 442 16,100 2,040 Climbing Atlanta Center
10:14AM 33.9586 -83.6706 50° Northeast 384 442 18,000 1,740 Climbing Atlanta Center
10:15AM 34.0208 -83.5725 53° Northeast 390 449 19,600 1,560 Climbing Atlanta Center
10:16AM 34.1017 -83.4417 53° Northeast 400 460 21,200 1,440 Climbing Atlanta Center
10:17AM 34.1742 -83.3256 53° Northeast 422 486 22,500 1,260 Climbing Atlanta Center
10:18AM 34.2486 -83.2044 53° Northeast 432 497 23,800 1,200 Climbing Atlanta Center
10:19AM 34.3247 -83.0856 52° Northeast 443 510 25,000 600 Climbing Atlanta Center
10:20AM 34.4053 -82.9536 53° Northeast 462 532 25,000  Level Atlanta Center
10:21AM 34.4894 -82.8239 52° Northeast 482 555 25,000  Level Atlanta Center
10:22AM 34.5736 -82.6867 53° Northeast 498 573 25,000  Level Atlanta Center
10:23AM 34.6556 -82.5514 54° Northeast 503 579 25,000  Level Atlanta Center
10:24AM 34.7394 -82.4108 54° Northeast 503 579 25,000  Level Atlanta Center
10:25AM 34.8250 -82.2753 52° Northeast 508 585 25,000  Level Atlanta Center
10:26AM 34.9086 -82.1342 54° Northeast 508 585 25,000  Level Atlanta Center
10:27AM 34.9919 -82.0028 52° Northeast 501 577 25,000  Level Atlanta Center
10:28AM 35.1008 -81.8961 39° Northeast 491 565 25,000  Level Atlanta Center
10:29AM 35.2267 -81.8242 25° Northeast 486 559 25,000  Level Atlanta Center
10:30AM 35.3361 -81.7578 26° Northeast 486 559 25,000  Level Atlanta Center
10:31AM 35.4642 -81.6828 25° Northeast 491 565 25,000  Level Atlanta Center
10:32AM 35.5919 -81.6100 25° Northeast 498 573 25,000  Level Atlanta Center
10:33AM 35.7197 -81.5347 26° Northeast 498 573 25,000  Level Atlanta Center
10:34AM 35.8600 -81.4508 26° Northeast 498 573 25,000  Level Atlanta Center
10:35AM 35.9856 -81.3775 25° Northeast 498 573 25,000  Level Atlanta Center
10:36AM 36.1111 -81.3014 26° Northeast 497 572 25,000  Level Atlanta Center
10:37AM 36.2325 -81.2253 27° Northeast 497 572 25,000  Level Atlanta Center
10:38AM 36.3561 -81.1539 25° Northeast 492 566 25,000  Level Atlanta Center
10:39AM 36.4669 -81.0856 26° Northeast 487 560 25,000  Level Atlanta Center
10:40AM 36.5883 -81.0139 25° Northeast 482 555 25,000  Level Atlanta Center
10:41AM 36.7075 -80.9419 26° Northeast 482 555 25,000  Level Atlanta Center
10:42AM 36.8367 -80.8642 26° Northeast 475 547 25,000  Level Atlanta Center
10:43AM 36.9475 -80.7975 26° Northeast 469 540 25,000  Level Atlanta Center
10:46AM 37.2142 -80.6775 20° North 464 534 25,000  Level Washington Center
10:47AM 37.3414 -80.6336 15° North 464 534 25,000  Level Washington Center
10:48AM 37.4683 -80.5925 14° North 464 534 25,000  Level Washington Center
10:49AM 37.5972 -80.5486 15° North 464 534 25,000  Level Washington Center
10:50AM 37.7242 -80.5069 15° North 464 534 25,000  Level Washington Center
10:51AM 37.8636 -80.4633 14° North 464 534 25,000  Level Washington Center
10:52AM 37.9906 -80.4217 15° North 464 534 25,000  Level Washington Center
10:53AM 38.1175 -80.3769 15° North 464 534 25,000  Level Washington Center
10:54AM 38.2419 -80.3375 14° North 464 534 25,000  Level Washington Center
10:55AM 38.3667 -80.2950 15° North 459 528 25,000  Level Washington Center
10:56AM 38.4789 -80.2544 16° North 464 534 25,000  Level Washington Center
10:57AM 38.6014 -80.2117 15° North 464 534 25,000  Level Washington Center
10:58AM 38.7261 -80.1714 14° North 459 528 25,000  Level Washington Center
11:00AM 39.0069 -80.0114 24° Northeast 451 519 25,000  Level Cleveland Center
11:01AM 39.1083 -79.9064 39° Northeast 457 526 25,000  Level Cleveland Center
11:02AM 39.2078 -79.8036 39° Northeast 457 526 25,000  Level Cleveland Center
11:03AM 39.3092 -79.6978 39° Northeast 462 532 25,000  Level Cleveland Center
11:04AM 39.4125 -79.5944 38° Northeast 468 539 25,000  Level Cleveland Center
11:05AM 39.5136 -79.4881 39° Northeast 468 539 25,000  Level Cleveland Center
11:06AM 39.6147 -79.3839 38° Northeast 468 539 25,000  Level Cleveland Center
11:07AM 39.7158 -79.2797 38° Northeast 468 539 25,000  Level Cleveland Center
11:08AM 39.8167 -79.1694 40° Northeast 468 539 25,000  Level Cleveland Center
11:09AM 39.9194 -79.0672 37° Northeast 468 539 25,000  Level Cleveland Center
11:10AM 40.0200 -78.9564 40° Northeast 468 539 25,000  Level Cleveland Center
11:11AM 40.1228 -78.8481 39° Northeast 467 537 25,000  Level Cleveland Center
11:12AM 40.2253 -78.7422 38° Northeast 467 537 25,000  Level Cleveland Center
11:13AM 40.3256 -78.6306 40° Northeast 467 537 25,000  Level Cleveland Center
11:14AM 40.4300 -78.5211 39° Northeast 467 537 25,000  Level Cleveland Center
11:16AM 40.6344 -78.3006 39° Northeast 465 535 25,000  Level New York Center
11:17AM 40.7331 -78.1908 40° Northeast 465 535 25,000  Level New York Center
11:18AM 40.8378 -78.0814 38° Northeast 465 535 25,000  Level New York Center
11:19AM 40.9367 -77.9628 42° Northeast 465 535 25,000  Level New York Center
11:20AM 41.0281 -77.8322 47° Northeast 472 543 25,000  Level New York Center
11:21AM 41.1147 -77.7033 48° Northeast 472 543 25,000  Level New York Center
11:22AM 41.2056 -77.5747 47° Northeast 477 549 25,000  Level New York Center
11:23AM 41.3036 -77.4269 49° Northeast 482 555 25,000  Level New York Center
11:24AM 41.3831 -77.3106 48° Northeast 476 548 25,000  Level New York Center
11:25AM 41.4714 -77.1778 48° Northeast 476 548 25,000  Level New York Center
11:26AM 41.5597 -77.0475 48° Northeast 481 554 25,000 -120 Level New York Center
11:27AM 41.6478 -76.9169 48° Northeast 481 554 24,800 -540 Descending New York Center
11:28AM 41.7333 -76.7886 48° Northeast 476 548 24,000 -420 Descending New York Center
11:29AM 41.8192 -76.6544 49° Northeast 476 548 24,000  Level New York Center
11:30AM 41.9025 -76.5253 49° Northeast 470 541 24,000  Level New York Center
11:31AM 41.9903 -76.3933 48° Northeast 470 541 24,000  Level New York Center
11:32AM 42.0775 -76.2611 48° Northeast 470 541 24,000  Level New York Center
11:34AM 42.2322 -75.9231 58° Northeast 461 531 24,000  Level Boston Center
11:35AM 42.2892 -75.7633 64° Northeast 462 532 24,000  Level Boston Center
11:36AM 42.3417 -75.6089 65° Northeast 456 525 24,000  Level Boston Center
11:37AM 42.3958 -75.4511 65° Northeast 456 525 24,000 -420 Level Boston Center
11:38AM 42.4500 -75.2906 65° Northeast 456 525 23,200 -1,680 Descending Boston Center
11:39AM 42.4917 -75.1264 71° East 456 525 20,700 -2,460 Descending Boston Center
11:40AM 42.5078 -74.9664 82° East 448 516 18,300 -2,280 Descending Boston Center
11:41AM 42.4986 -74.8083 94° East 419 482 16,200 -2,160 Descending Boston Center
11:41AM 42.4975 -74.7578 92° East 404 465 15,500 -2,220 Descending Boston Center
11:42AM 42.4931 -74.6703 94° East 412 474 14,000 -2,280 Descending Boston Center
11:43AM 42.4925 -74.5997 91° East 393 452 13,000 -2,400 Descending Boston Center
11:43AM 42.4900 -74.5125 92° East 394 453 11,600 -1,680 Descending Boston Center
11:44AM 42.4867 -74.4617 95° East 376 433 11,300 -900 Descending Boston Center
11:44AM 42.4961 -74.3914 80° East 365 420 10,700 -900 Descending Boston Center
11:44AM 42.5136 -74.3497 60° Northeast 329 379 10,500 -1,020 Descending Boston Center
11:45AM 42.5419 -74.2803 61° Northeast 319 367 9,700 -1,380 Descending Boston Center
11:46AM 42.5614 -74.2356 59° Northeast 290 334 9,000 -1,500 Descending Boston Center
11:46AM 42.5786 -74.1939 61° Northeast 293 337 8,200 -1,500 Descending Boston Center
11:47AM 42.6022 -74.1411 59° Northeast 291 335 7,500 -1,500 Descending Boston Center
11:47AM 42.6347 -74.0714 58° Northeast 288 331 6,400 -1,680 Descending Boston Center
11:48AM 42.6536 -74.0606 23° Northeast 290 334 5,800 -1,800 Descending Boston Center
11:48AM 42.7081 -74.0281 24° Northeast 274 315 4,600 -1,680 Descending Boston Center
11:49AM 42.7292 -74.0172 21° North 291 335 4,100 -900 Descending Boston Center
11:49AM 42.7794 -73.9903 21° North 274 315 3,700 -720 Descending Boston Center
11:50AM 42.7986 -73.9794 23° Northeast 264 304 3,400 -720 Descending Boston Center
11:50AM 42.8444 -73.9608 17° North 267 307 3,000 -540 Descending Boston Center
11:51AM 42.8658 -73.9358 41° Northeast 238 274 2,800 -840 Descending Boston Center
11:51AM 42.8728 -73.8822 80° East 225 259 2,200 -780 Descending Boston Center
11:52AM 42.8750 -73.8594 82° East 205 236 2,100 -240 Descending Boston Center
11:52AM 42.8650 -73.8308 115° Southeast 178 205 2,000 -420 Descending Boston Center
11:53AM 42.8361 -73.8133 156° South 156 180 1,700 -540 Descending Boston Center
11:54AM 42.8047 -73.8097 175° South 129 148 1,300 -600 Descending Boston Center
11:55AM 42.7694 -73.8089 179° South 124 143 600 -780 Descending Boston Center